Piapot, Canada
Current Conditions -  °F | °C
As of 6:49 AM on Thursday 30 Oct 2014 (Local Time) from CYYN Reporting Station
Haze Haze  
Wind Chill: 22°   Ceiling: 300
Heat Index: 30°   Visibility: 2.5mi
Dew Point: 30°   Wind: 9mph
Humidity: 100%   Direction: 80°E
Pressure: 30.3"   Gusts: NA
Location:  49.98°N, 109.12°W
Report Text: CYYN 301249Z AUTO 08008KT 2 1/2SM BR OVC003 M01/M01 A3030 RMK SLP295
Loading
Personal Weather Stations






























Interactive Weather Map
Tropical Storm Tracking
New forecast layout! Learn more

10-Day Weather Forecast

Advertisements
Track Severe Weather on mobile